createdAt,value
2022-10-01T00:00:00.238Z,0
2022-10-01T00:05:00.168Z,0
2022-10-01T00:10:00.181Z,0
2022-10-01T00:15:04.263Z,0
2022-10-01T00:20:00.195Z,0
2022-10-01T00:25:00.172Z,0
2022-10-01T00:30:00.235Z,0
2022-10-01T00:35:00.178Z,0
2022-10-01T00:40:00.174Z,0
2022-10-01T00:45:00.197Z,0
2022-10-01T00:50:00.208Z,0
2022-10-01T00:55:00.170Z,0
2022-10-01T01:00:03.296Z,0
2022-10-01T01:05:00.165Z,0
2022-10-01T01:10:00.238Z,0
2022-10-01T01:15:00.176Z,0
2022-10-01T01:20:00.209Z,0
2022-10-01T01:25:00.178Z,0
2022-10-01T01:30:00.194Z,0
2022-10-01T01:35:00.166Z,0
2022-10-01T01:40:00.224Z,0
2022-10-01T01:45:00.183Z,0
2022-10-01T01:50:00.192Z,0
2022-10-01T01:55:00.175Z,0
2022-10-01T02:00:00.193Z,0
2022-10-01T02:05:00.169Z,0
2022-10-01T02:10:00.188Z,0
2022-10-01T02:15:00.182Z,0
2022-10-01T02:20:00.178Z,0
2022-10-01T02:25:00.170Z,0
2022-10-01T02:30:00.206Z,0
2022-10-01T02:35:00.183Z,0
2022-10-01T02:40:00.190Z,0
2022-10-01T02:45:00.145Z,0
2022-10-01T02:50:00.218Z,0
2022-10-01T02:55:00.182Z,0
2022-10-01T03:00:00.292Z,0
2022-10-01T03:05:00.178Z,0
2022-10-01T03:10:00.184Z,0
2022-10-01T03:15:00.181Z,0
2022-10-01T03:20:00.216Z,0
2022-10-01T03:25:00.196Z,0
2022-10-01T03:30:00.200Z,0
2022-10-01T03:35:00.201Z,0
2022-10-01T03:40:00.217Z,0
2022-10-01T03:45:00.210Z,0
2022-10-01T03:50:00.214Z,0
2022-10-01T03:55:00.195Z,0
2022-10-01T04:00:00.252Z,0
2022-10-01T04:05:00.223Z,0
2022-10-01T04:10:00.189Z,0
2022-10-01T04:15:00.182Z,0
2022-10-01T04:20:00.218Z,0
2022-10-01T04:25:00.231Z,0
2022-10-01T04:30:00.179Z,0
2022-10-01T04:35:00.215Z,0
2022-10-01T04:40:00.201Z,0
2022-10-01T04:45:00.186Z,0
2022-10-01T04:50:00.205Z,0
2022-10-01T04:55:00.196Z,0
2022-10-01T05:00:00.228Z,0
2022-10-01T05:05:00.156Z,0
2022-10-01T05:10:00.206Z,0
2022-10-01T05:15:00.192Z,2
2022-10-01T05:20:00.192Z,4
2022-10-01T05:25:00.223Z,8
2022-10-01T05:30:00.195Z,15
2022-10-01T05:35:00.189Z,31
2022-10-01T05:40:00.207Z,91
2022-10-01T05:45:00.277Z,184
2022-10-01T05:50:00.198Z,196
2022-10-01T05:55:00.199Z,263
2022-10-01T06:00:00.247Z,180
2022-10-01T06:05:00.191Z,157
2022-10-01T06:10:00.202Z,349
2022-10-01T06:15:00.200Z,600
2022-10-01T06:20:00.203Z,988
2022-10-01T06:25:00.194Z,1412
2022-10-01T06:30:00.268Z,2173
2022-10-01T06:35:00.212Z,1515
2022-10-01T06:40:00.197Z,1702
2022-10-01T06:45:00.217Z,2439
2022-10-01T06:50:00.209Z,2942
2022-10-01T06:55:00.214Z,4205
2022-10-01T07:00:00.243Z,2963
2022-10-01T07:05:00.202Z,4715
2022-10-01T07:10:00.202Z,4068
2022-10-01T07:15:00.203Z,5621
2022-10-01T07:20:00.195Z,4194
2022-10-01T07:25:00.194Z,4702
2022-10-01T07:30:00.205Z,3918
2022-10-01T07:35:00.199Z,4059
2022-10-01T07:40:03.050Z,5977
2022-10-01T07:45:00.224Z,3866
2022-10-01T07:50:00.212Z,4997
2022-10-01T07:55:00.204Z,7300
2022-10-01T08:00:00.238Z,16592
2022-10-01T08:05:00.244Z,4222
2022-10-01T08:10:00.254Z,2514
2022-10-01T08:15:00.210Z,3208
2022-10-01T08:20:00.235Z,3613
2022-10-01T08:25:00.264Z,6847
2022-10-01T08:30:00.248Z,17338
2022-10-01T08:35:00.272Z,44177
2022-10-01T08:40:00.242Z,45920
2022-10-01T08:45:00.627Z,48006
2022-10-01T08:50:00.254Z,51976
2022-10-01T08:55:00.216Z,47130
2022-10-01T09:00:00.251Z,5293
2022-10-01T09:05:01.788Z,2978
2022-10-01T09:10:00.289Z,3317
2022-10-01T09:15:00.211Z,4804
2022-10-01T09:20:00.293Z,20216
2022-10-01T09:25:00.246Z,23697
2022-10-01T09:30:00.252Z,10195
2022-10-01T09:35:04.257Z,68770
2022-10-01T09:40:00.226Z,7129
2022-10-01T09:45:00.246Z,15937
2022-10-01T09:50:00.276Z,10797
2022-10-01T09:55:00.718Z,63227
2022-10-01T10:00:00.241Z,22075
2022-10-01T10:05:00.249Z,6992
2022-10-01T10:10:00.242Z,6252
2022-10-01T10:15:00.253Z,17155
2022-10-01T10:20:00.225Z,18172
2022-10-01T10:25:00.217Z,19652
2022-10-01T10:30:00.197Z,17726
2022-10-01T10:35:03.194Z,6598
2022-10-01T10:40:00.204Z,4656
2022-10-01T10:45:00.191Z,3732
2022-10-01T10:50:00.221Z,85133
2022-10-01T10:55:00.279Z,43883
2022-10-01T11:00:00.317Z,84256
2022-10-01T11:05:00.209Z,84256
2022-10-01T11:10:00.198Z,84256
2022-10-01T11:15:00.217Z,84256
2022-10-01T11:20:00.915Z,84256
2022-10-01T11:25:00.182Z,84256
2022-10-01T11:30:00.228Z,84256
2022-10-01T11:35:00.218Z,47512
2022-10-01T11:40:00.193Z,68897
2022-10-01T11:45:00.965Z,86377
2022-10-01T11:50:00.241Z,87438
2022-10-01T11:55:00.316Z,97926
2022-10-01T12:00:00.288Z,97342
2022-10-01T12:05:00.217Z,97342
2022-10-01T12:15:04.234Z,39066
2022-10-01T12:20:00.286Z,8956
2022-10-01T12:25:00.193Z,96161
2022-10-01T12:35:00.237Z,96161
2022-10-01T12:40:00.204Z,92666
2022-10-01T12:45:00.210Z,92666
2022-10-01T12:50:00.302Z,76524
2022-10-01T12:55:00.208Z,92790
2022-10-01T13:00:00.390Z,52893
2022-10-01T13:05:00.190Z,96095
2022-10-01T13:10:00.251Z,96095
2022-10-01T13:15:00.254Z,85605
2022-10-01T13:20:00.209Z,85605
2022-10-01T13:25:00.192Z,85605
2022-10-01T13:30:00.294Z,86218
2022-10-01T13:35:00.215Z,83599
2022-10-01T13:40:00.216Z,16573
2022-10-01T13:45:00.213Z,11976
2022-10-01T13:50:00.263Z,6581
2022-10-01T13:55:00.224Z,5840
2022-10-01T14:00:00.278Z,7621
2022-10-01T14:05:00.213Z,70843
2022-10-01T14:10:00.223Z,24998
2022-10-01T14:15:00.212Z,10718
2022-10-01T14:20:00.246Z,9519
2022-10-01T14:25:00.246Z,8945
2022-10-01T14:30:00.212Z,60131
2022-10-01T14:35:00.214Z,59115
2022-10-01T14:40:00.219Z,61390
2022-10-01T14:45:00.224Z,58925
2022-10-01T14:50:00.191Z,9895
2022-10-01T14:55:00.225Z,18076
2022-10-01T15:00:00.336Z,4914
2022-10-01T15:05:00.360Z,7621
2022-10-01T15:10:00.200Z,15603
2022-10-01T15:15:00.209Z,33736
2022-10-01T15:20:00.227Z,17902
2022-10-01T15:25:00.176Z,42738
2022-10-01T15:30:00.365Z,42738
2022-10-01T15:35:00.256Z,36593
2022-10-01T15:40:00.315Z,35083
2022-10-01T15:45:00.203Z,29985
2022-10-01T15:50:00.347Z,29628
2022-10-01T15:55:00.297Z,7898
2022-10-01T16:00:00.222Z,4763
2022-10-01T16:05:00.193Z,4081
2022-10-01T16:10:00.241Z,3615
2022-10-01T16:15:00.203Z,3210
2022-10-01T16:20:00.211Z,2233
2022-10-01T16:25:00.189Z,1982
2022-10-01T16:30:05.003Z,1982
2022-10-01T16:35:00.192Z,1752
2022-10-01T16:40:00.195Z,1386
2022-10-01T16:45:00.185Z,1233
2022-10-01T16:50:00.230Z,975
2022-10-01T16:55:00.220Z,771
2022-10-01T17:00:00.220Z,537
2022-10-01T17:05:00.218Z,429
2022-10-01T17:10:00.212Z,301
2022-10-01T17:15:00.220Z,164
2022-10-01T17:20:00.525Z,163
2022-10-01T17:25:00.210Z,101
2022-10-01T17:30:00.204Z,49
2022-10-01T17:35:00.192Z,22
2022-10-01T17:40:00.195Z,8
2022-10-01T17:45:00.192Z,4
2022-10-01T17:50:00.238Z,3
2022-10-01T17:55:00.212Z,2
2022-10-01T18:00:00.251Z,0
2022-10-01T18:05:00.220Z,0
2022-10-01T18:10:00.209Z,0
2022-10-01T18:15:00.197Z,0
2022-10-01T18:20:00.203Z,0
2022-10-01T18:25:00.170Z,0
2022-10-01T18:30:00.199Z,0
2022-10-01T18:35:00.209Z,0
2022-10-01T18:40:00.240Z,0
2022-10-01T18:45:00.192Z,0
2022-10-01T18:50:00.192Z,0
2022-10-01T18:55:00.198Z,0
2022-10-01T19:00:00.211Z,0
2022-10-01T19:05:00.179Z,0
2022-10-01T19:10:00.177Z,0
2022-10-01T19:15:00.204Z,0
2022-10-01T19:20:00.183Z,0
2022-10-01T19:25:00.179Z,0
2022-10-01T19:30:00.198Z,0
2022-10-01T19:35:00.183Z,0
2022-10-01T19:40:00.181Z,0
2022-10-01T19:45:00.159Z,0
2022-10-01T19:50:00.179Z,0
2022-10-01T19:55:00.173Z,0
2022-10-01T20:00:00.269Z,0
2022-10-01T20:05:00.162Z,0
2022-10-01T20:10:05.069Z,0
2022-10-01T20:15:00.205Z,0
2022-10-01T20:20:00.194Z,0
2022-10-01T20:25:00.175Z,0
2022-10-01T20:30:00.204Z,0
2022-10-01T20:35:00.176Z,0
2022-10-01T20:40:00.182Z,0
2022-10-01T20:45:00.200Z,0
2022-10-01T20:50:00.192Z,0
2022-10-01T20:55:00.191Z,0
2022-10-01T21:00:00.190Z,0
2022-10-01T21:05:00.185Z,0
2022-10-01T21:10:00.213Z,0
2022-10-01T21:15:00.178Z,0
2022-10-01T21:20:00.219Z,0
2022-10-01T21:25:00.172Z,0
2022-10-01T21:30:00.175Z,0
2022-10-01T21:35:00.181Z,0
2022-10-01T21:40:00.191Z,0
2022-10-01T21:45:00.188Z,0
2022-10-01T21:50:00.202Z,0
2022-10-01T21:55:00.190Z,0
2022-10-01T22:00:00.234Z,0
2022-10-01T22:05:00.188Z,0
2022-10-01T22:10:00.188Z,0
2022-10-01T22:15:00.149Z,0
2022-10-01T22:20:00.189Z,0
2022-10-01T22:25:00.187Z,0
2022-10-01T22:30:00.197Z,0
2022-10-01T22:35:00.162Z,0
2022-10-01T22:40:00.201Z,0
2022-10-01T22:45:00.152Z,0
2022-10-01T22:50:00.189Z,0
2022-10-01T22:55:00.172Z,0
2022-10-01T23:00:00.196Z,0
2022-10-01T23:05:00.175Z,0
2022-10-01T23:10:00.177Z,0
2022-10-01T23:15:00.181Z,0
2022-10-01T23:20:00.182Z,0
2022-10-01T23:25:00.179Z,0
2022-10-01T23:30:00.192Z,0
2022-10-01T23:35:00.177Z,0
2022-10-01T23:40:00.230Z,0
2022-10-01T23:45:00.204Z,0
2022-10-01T23:50:00.382Z,0
2022-10-01T23:55:00.161Z,0
